TimeCDT,TemperatureF,Dew PointF,Humidity,Sea Level PressureIn,VisibilityMPH,Wind Direction,Wind SpeedMPH,Gust SpeedMPH,PrecipitationIn,Events,Conditions,WindDirDegrees,DateUTC
12:53 AM,52.0,42.1,69,30.06,10.0,SSW,3.5,-,N/A,,Clear,210,2012-09-30 05:53:00
1:53 AM,52.0,41.0,66,30.05,10.0,Calm,Calm,-,N/A,,Clear,0,2012-09-30 06:53:00
2:53 AM,53.1,41.0,64,30.04,10.0,WSW,4.6,-,N/A,,Clear,250,2012-09-30 07:53:00
3:53 AM,52.0,41.0,66,30.03,10.0,WSW,5.8,-,N/A,,Clear,240,2012-09-30 08:53:00
4:53 AM,52.0,41.0,66,30.02,10.0,Calm,Calm,-,N/A,,Clear,0,2012-09-30 09:53:00
5:53 AM,50.0,41.0,71,30.01,10.0,Calm,Calm,-,N/A,,Clear,0,2012-09-30 10:53:00
6:53 AM,50.0,41.0,71,30.00,10.0,Calm,Calm,-,N/A,,Clear,0,2012-09-30 11:53:00
7:53 AM,46.9,41.0,80,30.01,10.0,Calm,Calm,-,N/A,,Clear,0,2012-09-30 12:53:00
8:53 AM,52.0,44.1,74,30.01,10.0,Calm,Calm,-,N/A,,Clear,0,2012-09-30 13:53:00
9:53 AM,57.0,46.0,67,30.03,10.0,West,6.9,-,N/A,,Clear,260,2012-09-30 14:53:00
10:53 AM,66.9,46.0,47,30.01,10.0,South,3.5,-,N/A,,Clear,180,2012-09-30 15:53:00
11:53 AM,71.1,42.1,35,30.00,10.0,South,5.8,-,N/A,,Clear,170,2012-09-30 16:53:00
12:53 PM,73.0,37.0,27,29.99,10.0,Variable,4.6,-,N/A,,Clear,0,2012-09-30 17:53:00
1:53 PM,75.9,37.9,25,29.96,10.0,Variable,6.9,-,N/A,,Clear,0,2012-09-30 18:53:00
2:53 PM,75.9,33.1,21,29.93,10.0,Variable,5.8,-,N/A,,Clear,0,2012-09-30 19:53:00
3:53 PM,78.1,30.0,17,29.92,10.0,SSE,4.6,-,N/A,,Clear,150,2012-09-30 20:53:00
4:53 PM,78.1,30.9,18,29.91,10.0,Variable,4.6,-,N/A,,Clear,0,2012-09-30 21:53:00
5:53 PM,77.0,30.9,19,29.91,10.0,ESE,3.5,-,N/A,,Clear,110,2012-09-30 22:53:00
6:53 PM,73.9,33.1,22,29.91,10.0,Calm,Calm,-,N/A,,Clear,0,2012-09-30 23:53:00
7:53 PM,68.0,35.1,30,29.93,10.0,SE,5.8,-,N/A,,Clear,140,2012-10-01 00:53:00
8:53 PM,66.9,32.0,27,29.93,10.0,SSE,6.9,-,N/A,,Clear,160,2012-10-01 01:53:00
9:53 PM,63.0,34.0,34,29.94,10.0,South,6.9,-,N/A,,Clear,180,2012-10-01 02:53:00
10:53 PM,61.0,35.1,38,29.95,10.0,South,4.6,-,N/A,,Clear,190,2012-10-01 03:53:00
11:53 PM,55.0,36.0,49,29.95,10.0,Calm,Calm,-,N/A,,Partly Cloudy,0,2012-10-01 04:53:00